sensor_id;sensor_type;location;lat;lon;timestamp;pressure;altitude;pressure_sealevel;temperature;humidity
58967;BME280;44744;51.894;5.080;2024-01-16T00:04:18;101063.56;;;-0.73;100.00
58967;BME280;44744;51.894;5.080;2024-01-16T00:09:18;101073.81;;;-0.71;100.00
58967;BME280;44744;51.894;5.080;2024-01-16T00:14:19;101066.83;;;-0.65;100.00
58967;BME280;44744;51.894;5.080;2024-01-16T00:19:19;101067.01;;;-0.63;100.00
58967;BME280;44744;51.894;5.080;2024-01-16T00:24:19;101065.95;;;-0.62;100.00
58967;BME280;44744;51.894;5.080;2024-01-16T00:29:20;101068.39;;;-0.60;100.00
58967;BME280;44744;51.894;5.080;2024-01-16T00:34:21;101072.02;;;-0.58;100.00
58967;BME280;44744;51.894;5.080;2024-01-16T00:39:21;101073.23;;;-0.57;100.00
58967;BME280;44744;51.894;5.080;2024-01-16T00:44:21;101074.45;;;-0.56;100.00
58967;BME280;44744;51.894;5.080;2024-01-16T00:49:22;101078.27;;;-0.56;100.00
58967;BME280;44744;51.894;5.080;2024-01-16T00:54:22;101078.78;;;-0.54;100.00
58967;BME280;44744;51.894;5.080;2024-01-16T00:59:23;101079.12;;;-0.53;100.00
58967;BME280;44744;51.894;5.080;2024-01-16T01:04:23;101078.43;;;-0.54;100.00
58967;BME280;44744;51.894;5.080;2024-01-16T01:09:24;101080.88;;;-0.55;100.00
58967;BME280;44744;51.894;5.080;2024-01-16T01:14:24;101087.14;;;-0.58;100.00
58967;BME280;44744;51.894;5.080;2024-01-16T01:19:26;101081.07;;;-0.62;100.00
58967;BME280;44744;51.894;5.080;2024-01-16T01:24:27;101081.95;;;-0.64;100.00
58967;BME280;44744;51.894;5.080;2024-01-16T01:29:27;101082.48;;;-0.66;100.00
58967;BME280;44744;51.894;5.080;2024-01-16T01:34:27;101079.88;;;-0.67;100.00
58967;BME280;44744;51.894;5.080;2024-01-16T01:39:28;101081.45;;;-0.70;100.00
58967;BME280;44744;51.894;5.080;2024-01-16T01:44:28;101087.20;;;-0.73;100.00
58967;BME280;44744;51.894;5.080;2024-01-16T01:49:30;101096.25;;;-0.76;100.00
58967;BME280;44744;51.894;5.080;2024-01-16T01:54:33;101100.27;;;-0.80;100.00
58967;BME280;44744;51.894;5.080;2024-01-16T01:59:35;101103.21;;;-0.81;100.00
58967;BME280;44744;51.894;5.080;2024-01-16T02:04:36;101105.13;;;-0.82;100.00
58967;BME280;44744;51.894;5.080;2024-01-16T02:09:37;101107.04;;;-0.86;100.00
58967;BME280;44744;51.894;5.080;2024-01-16T02:14:38;101110.55;;;-0.90;100.00
58967;BME280;44744;51.894;5.080;2024-01-16T02:19:38;101120.29;;;-0.95;100.00
58967;BME280;44744;51.894;5.080;2024-01-16T02:24:38;101130.20;;;-1.04;100.00
58967;BME280;44744;51.894;5.080;2024-01-16T02:29:42;101126.05;;;-1.09;100.00
58967;BME280;44744;51.894;5.080;2024-01-16T02:34:45;101116.66;;;-1.06;100.00
58967;BME280;44744;51.894;5.080;2024-01-16T02:39:45;101103.45;;;-1.01;100.00
58967;BME280;44744;51.894;5.080;2024-01-16T02:44:46;101095.80;;;-0.96;100.00
58967;BME280;44744;51.894;5.080;2024-01-16T02:49:47;101090.73;;;-0.89;100.00
58967;BME280;44744;51.894;5.080;2024-01-16T02:54:48;101088.28;;;-0.83;100.00
58967;BME280;44744;51.894;5.080;2024-01-16T02:59:48;101089.33;;;-0.80;100.00
58967;BME280;44744;51.894;5.080;2024-01-16T03:04:49;101099.39;;;-0.79;100.00
58967;BME280;44744;51.894;5.080;2024-01-16T03:09:50;101104.92;;;-0.76;100.00
58967;BME280;44744;51.894;5.080;2024-01-16T03:14:51;101107.88;;;-0.73;100.00
58967;BME280;44744;51.894;5.080;2024-01-16T03:19:53;101118.64;;;-0.74;100.00
58967;BME280;44744;51.894;5.080;2024-01-16T03:24:53;101115.69;;;-0.75;100.00
58967;BME280;44744;51.894;5.080;2024-01-16T03:29:54;101104.93;;;-0.74;100.00
58967;BME280;44744;51.894;5.080;2024-01-16T03:34:54;101097.44;;;-0.72;100.00
58967;BME280;44744;51.894;5.080;2024-01-16T03:39:55;101098.30;;;-0.71;100.00
58967;BME280;44744;51.894;5.080;2024-01-16T03:44:55;101095.00;;;-0.70;100.00
58967;BME280;44744;51.894;5.080;2024-01-16T03:49:56;101094.30;;;-0.68;100.00
58967;BME280;44744;51.894;5.080;2024-01-16T03:54:57;101091.17;;;-0.67;100.00
58967;BME280;44744;51.894;5.080;2024-01-16T03:59:57;101092.02;;;-0.66;100.00
58967;BME280;44744;51.894;5.080;2024-01-16T04:04:59;101092.89;;;-0.64;100.00
58967;BME280;44744;51.894;5.080;2024-01-16T04:10:00;101088.03;;;-0.64;100.00
58967;BME280;44744;51.894;5.080;2024-01-16T04:15:01;101086.11;;;-0.62;100.00
58967;BME280;44744;51.894;5.080;2024-01-16T04:20:02;101076.39;;;-0.61;100.00
58967;BME280;44744;51.894;5.080;2024-01-16T04:25:03;101074.98;;;-0.60;100.00
58967;BME280;44744;51.894;5.080;2024-01-16T04:30:05;101072.90;;;-0.60;100.00
58967;BME280;44744;51.894;5.080;2024-01-16T04:35:06;101073.42;;;-0.59;100.00
58967;BME280;44744;51.894;5.080;2024-01-16T04:40:07;101073.56;;;-0.57;100.00
58967;BME280;44744;51.894;5.080;2024-01-16T04:45:08;101080.52;;;-0.55;100.00
58967;BME280;44744;51.894;5.080;2024-01-16T04:50:09;101078.60;;;-0.55;100.00
58967;BME280;44744;51.894;5.080;2024-01-16T04:55:09;101075.65;;;-0.57;100.00
58967;BME280;44744;51.894;5.080;2024-01-16T05:00:10;101071.14;;;-0.57;100.00
58967;BME280;44744;51.894;5.080;2024-01-16T05:05:11;101068.36;;;-0.56;100.00
58967;BME280;44744;51.894;5.080;2024-01-16T05:10:12;101061.22;;;-0.53;100.00
58967;BME280;44744;51.894;5.080;2024-01-16T05:15:13;101063.29;;;-0.51;100.00
58967;BME280;44744;51.894;5.080;2024-01-16T05:20:18;101062.60;;;-0.51;100.00
58967;BME280;44744;51.894;5.080;2024-01-16T05:25:18;101050.08;;;-0.51;100.00
58967;BME280;44744;51.894;5.080;2024-01-16T05:30:20;101051.63;;;-0.49;100.00
58967;BME280;44744;51.894;5.080;2024-01-16T05:35:20;101041.73;;;-0.48;100.00
58967;BME280;44744;51.894;5.080;2024-01-16T05:40:21;101031.63;;;-0.44;100.00
58967;BME280;44744;51.894;5.080;2024-01-16T05:45:22;101023.95;;;-0.39;100.00
58967;BME280;44744;51.894;5.080;2024-01-16T05:50:22;101016.80;;;-0.38;100.00
58967;BME280;44744;51.894;5.080;2024-01-16T05:55:23;101014.19;;;-0.34;100.00
58967;BME280;44744;51.894;5.080;2024-01-16T06:00:23;101009.83;;;-0.34;100.00
58967;BME280;44744;51.894;5.080;2024-01-16T06:05:24;101005.30;;;-0.32;100.00
58967;BME280;44744;51.894;5.080;2024-01-16T06:10:25;101004.75;;;-0.28;100.00
58967;BME280;44744;51.894;5.080;2024-01-16T06:15:25;101003.17;;;-0.27;100.00
58967;BME280;44744;51.894;5.080;2024-01-16T06:20:25;100995.87;;;-0.25;100.00
58967;BME280;44744;51.894;5.080;2024-01-16T06:25:26;100993.76;;;-0.23;100.00
58967;BME280;44744;51.894;5.080;2024-01-16T06:30:26;101001.05;;;-0.23;100.00
58967;BME280;44744;51.894;5.080;2024-01-16T06:35:27;101004.20;;;-0.24;100.00
58967;BME280;44744;51.894;5.080;2024-01-16T06:40:27;101006.80;;;-0.24;100.00
58967;BME280;44744;51.894;5.080;2024-01-16T06:45:28;101008.36;;;-0.24;100.00
58967;BME280;44744;51.894;5.080;2024-01-16T06:50:28;101012.90;;;-0.25;100.00
58967;BME280;44744;51.894;5.080;2024-01-16T06:55:29;101011.36;;;-0.29;100.00
58967;BME280;44744;51.894;5.080;2024-01-16T07:00:29;101008.77;;;-0.30;100.00
58967;BME280;44744;51.894;5.080;2024-01-16T07:05:30;101007.39;;;-0.33;100.00
58967;BME280;44744;51.894;5.080;2024-01-16T07:10:30;101009.66;;;-0.35;100.00
58967;BME280;44744;51.894;5.080;2024-01-16T07:15:31;101005.52;;;-0.36;100.00
58967;BME280;44744;51.894;5.080;2024-01-16T07:20:32;101008.63;;;-0.37;100.00
58967;BME280;44744;51.894;5.080;2024-01-16T07:25:32;101011.26;;;-0.39;100.00
58967;BME280;44744;51.894;5.080;2024-01-16T07:30:33;101017.86;;;-0.40;100.00
58967;BME280;44744;51.894;5.080;2024-01-16T07:35:33;101022.23;;;-0.43;100.00
58967;BME280;44744;51.894;5.080;2024-01-16T07:40:33;101029.38;;;-0.46;100.00
58967;BME280;44744;51.894;5.080;2024-01-16T07:45:34;101034.08;;;-0.48;100.00
58967;BME280;44744;51.894;5.080;2024-01-16T07:50:34;101037.40;;;-0.50;100.00
58967;BME280;44744;51.894;5.080;2024-01-16T07:55:34;101036.02;;;-0.52;100.00
58967;BME280;44744;51.894;5.080;2024-01-16T08:00:35;101038.97;;;-0.53;100.00
58967;BME280;44744;51.894;5.080;2024-01-16T08:05:35;101035.17;;;-0.55;100.00
58967;BME280;44744;51.894;5.080;2024-01-16T08:10:36;101036.73;;;-0.57;100.00
58967;BME280;44744;51.894;5.080;2024-01-16T08:15:36;101036.23;;;-0.60;100.00
58967;BME280;44744;51.894;5.080;2024-01-16T08:20:37;101036.77;;;-0.63;100.00
58967;BME280;44744;51.894;5.080;2024-01-16T08:25:37;101034.19;;;-0.66;100.00
58967;BME280;44744;51.894;5.080;2024-01-16T08:30:38;101036.63;;;-0.69;100.00
58967;BME280;44744;51.894;5.080;2024-01-16T08:35:38;101036.64;;;-0.68;100.00
58967;BME280;44744;51.894;5.080;2024-01-16T08:40:39;101037.86;;;-0.70;100.00
58967;BME280;44744;51.894;5.080;2024-01-16T08:45:39;101035.77;;;-0.71;100.00
58967;BME280;44744;51.894;5.080;2024-01-16T08:50:40;101035.93;;;-0.68;100.00
58967;BME280;44744;51.894;5.080;2024-01-16T08:55:41;101038.70;;;-0.67;100.00
58967;BME280;44744;51.894;5.080;2024-01-16T09:00:41;101039.05;;;-0.65;100.00
58967;BME280;44744;51.894;5.080;2024-01-16T09:05:42;101036.10;;;-0.66;100.00
58967;BME280;44744;51.894;5.080;2024-01-16T09:10:43;101039.73;;;-0.65;100.00
58967;BME280;44744;51.894;5.080;2024-01-16T09:15:43;101042.16;;;-0.63;100.00
58967;BME280;44744;51.894;5.080;2024-01-16T09:20:44;101041.45;;;-0.59;100.00
58967;BME280;44744;51.894;5.080;2024-01-16T09:25:45;101041.08;;;-0.56;100.00
58967;BME280;44744;51.894;5.080;2024-01-16T09:30:45;101043.52;;;-0.56;99.91
58967;BME280;44744;51.894;5.080;2024-01-16T09:35:46;101049.75;;;-0.53;99.98
58967;BME280;44744;51.894;5.080;2024-01-16T09:40:47;101045.56;;;-0.50;99.88
58967;BME280;44744;51.894;5.080;2024-01-16T09:45:49;101045.55;;;-0.49;99.61
58967;BME280;44744;51.894;5.080;2024-01-16T09:50:49;101038.96;;;-0.50;99.53
58967;BME280;44744;51.894;5.080;2024-01-16T09:55:51;101031.82;;;-0.47;99.62
58967;BME280;44744;51.894;5.080;2024-01-16T10:00:54;101037.17;;;-0.41;99.64
58967;BME280;44744;51.894;5.080;2024-01-16T10:05:56;101035.05;;;-0.35;99.59
58967;BME280;44744;51.894;5.080;2024-01-16T10:10:59;101030.14;;;-0.30;99.39
58967;BME280;44744;51.894;5.080;2024-01-16T10:16:00;101027.34;;;-0.26;99.35
58967;BME280;44744;51.894;5.080;2024-01-16T10:21:01;101023.84;;;-0.24;99.15
58967;BME280;44744;51.894;5.080;2024-01-16T10:26:09;101020.69;;;-0.21;99.02
58967;BME280;44744;51.894;5.080;2024-01-16T10:31:11;101011.08;;;-0.15;98.87
58967;BME280;44744;51.894;5.080;2024-01-16T10:41:16;101003.55;;;-0.09;98.21
58967;BME280;44744;51.894;5.080;2024-01-16T10:46:17;101001.61;;;-0.03;98.21
58967;BME280;44744;51.894;5.080;2024-01-16T10:51:17;100995.13;;;0.02;98.20
58967;BME280;44744;51.894;5.080;2024-01-16T10:56:19;100994.06;;;0.03;97.98
58967;BME280;44744;51.894;5.080;2024-01-16T11:01:20;100994.39;;;0.04;97.75
58967;BME280;44744;51.894;5.080;2024-01-16T11:06:23;100991.78;;;0.05;97.49
58967;BME280;44744;51.894;5.080;2024-01-16T11:11:24;100988.84;;;0.06;97.42
58967;BME280;44744;51.894;5.080;2024-01-16T11:16:26;100982.02;;;0.09;97.22
58967;BME280;44744;51.894;5.080;2024-01-16T11:21:26;100966.87;;;0.10;96.98
58967;BME280;44744;51.894;5.080;2024-01-16T11:26:30;100964.76;;;0.12;96.83
58967;BME280;44744;51.894;5.080;2024-01-16T11:31:36;100958.83;;;0.14;96.79
58967;BME280;44744;51.894;5.080;2024-01-16T11:36:49;100964.02;;;0.17;96.65
58967;BME280;44744;51.894;5.080;2024-01-16T11:41:58;100953.59;;;0.17;96.43
58967;BME280;44744;51.894;5.080;2024-01-16T11:47:03;100955.30;;;0.19;96.13
58967;BME280;44744;51.894;5.080;2024-01-16T11:52:03;100957.73;;;0.20;95.89
58967;BME280;44744;51.894;5.080;2024-01-16T12:02:21;100954.41;;;0.21;95.39
58967;BME280;44744;51.894;5.080;2024-01-16T12:07:24;100948.70;;;0.19;94.89
58967;BME280;44744;51.894;5.080;2024-01-16T12:12:24;100947.11;;;0.20;94.62
58967;BME280;44744;51.894;5.080;2024-01-16T12:17:25;100939.21;;;0.27;94.72
58967;BME280;44744;51.894;5.080;2024-01-16T12:22:25;100933.55;;;0.36;94.44
58967;BME280;44744;51.894;5.080;2024-01-16T12:27:26;100928.73;;;0.46;93.92
58967;BME280;44744;51.894;5.080;2024-01-16T12:32:26;100927.55;;;0.57;93.68
58967;BME280;44744;51.894;5.080;2024-01-16T12:37:28;100925.52;;;0.66;93.44
58967;BME280;44744;51.894;5.080;2024-01-16T12:42:28;100915.55;;;0.71;93.27
58967;BME280;44744;51.894;5.080;2024-01-16T12:47:29;100915.19;;;0.71;92.67
58967;BME280;44744;51.894;5.080;2024-01-16T12:52:30;100916.60;;;0.70;92.02
58967;BME280;44744;51.894;5.080;2024-01-16T12:57:32;100917.30;;;0.70;92.04
58967;BME280;44744;51.894;5.080;2024-01-16T13:02:32;100906.63;;;0.74;92.03
58967;BME280;44744;51.894;5.080;2024-01-16T13:07:34;100893.94;;;0.73;91.35
58967;BME280;44744;51.894;5.080;2024-01-16T13:12:34;100889.21;;;0.75;90.99
58967;BME280;44744;51.894;5.080;2024-01-16T13:17:35;100884.16;;;0.75;90.84
58967;BME280;44744;51.894;5.080;2024-01-16T13:22:36;100878.80;;;0.72;90.97
58967;BME280;44744;51.894;5.080;2024-01-16T13:27:36;100874.59;;;0.75;90.95
58967;BME280;44744;51.894;5.080;2024-01-16T13:32:37;100874.77;;;0.74;90.87
58967;BME280;44744;51.894;5.080;2024-01-16T13:37:37;100870.93;;;0.74;90.87
58967;BME280;44744;51.894;5.080;2024-01-16T13:42:38;100871.48;;;0.74;90.47
58967;BME280;44744;51.894;5.080;2024-01-16T13:47:39;100864.88;;;0.72;90.18
58967;BME280;44744;51.894;5.080;2024-01-16T13:52:40;100862.61;;;0.72;90.27
58967;BME280;44744;51.894;5.080;2024-01-16T13:57:41;100861.93;;;0.71;90.01
58967;BME280;44744;51.894;5.080;2024-01-16T14:02:43;100859.18;;;0.68;89.62
58967;BME280;44744;51.894;5.080;2024-01-16T14:07:44;100851.38;;;0.66;89.50
58967;BME280;44744;51.894;5.080;2024-01-16T14:12:50;100842.70;;;0.64;89.12
58967;BME280;44744;51.894;5.080;2024-01-16T14:17:55;100838.53;;;0.62;88.83
58967;BME280;44744;51.894;5.080;2024-01-16T14:22:56;100835.20;;;0.65;89.07
58967;BME280;44744;51.894;5.080;2024-01-16T14:28:01;100836.21;;;0.67;88.99
58967;BME280;44744;51.894;5.080;2024-01-16T14:33:06;100825.05;;;0.69;88.90
58967;BME280;44744;51.894;5.080;2024-01-16T14:38:08;100819.67;;;0.68;88.72
58967;BME280;44744;51.894;5.080;2024-01-16T14:43:08;100819.35;;;0.66;88.34
58967;BME280;44744;51.894;5.080;2024-01-16T14:48:09;100816.45;;;0.61;87.51
58967;BME280;44744;51.894;5.080;2024-01-16T14:53:10;100799.48;;;0.56;87.31
58967;BME280;44744;51.894;5.080;2024-01-16T14:58:11;100787.69;;;0.53;87.32
58967;BME280;44744;51.894;5.080;2024-01-16T15:03:11;100789.30;;;0.51;86.99
58967;BME280;44744;51.894;5.080;2024-01-16T15:08:12;100794.55;;;0.47;86.72
58967;BME280;44744;51.894;5.080;2024-01-16T15:13:13;100794.91;;;0.47;86.94
58967;BME280;44744;51.894;5.080;2024-01-16T15:18:13;100790.92;;;0.46;87.14
58967;BME280;44744;51.894;5.080;2024-01-16T15:23:14;100784.86;;;0.44;86.97
58967;BME280;44744;51.894;5.080;2024-01-16T15:28:14;100782.99;;;0.40;86.49
58967;BME280;44744;51.894;5.080;2024-01-16T15:33:14;100776.63;;;0.36;86.49
58967;BME280;44744;51.894;5.080;2024-01-16T15:38:15;100783.97;;;0.32;86.28
58967;BME280;44744;51.894;5.080;2024-01-16T15:43:15;100787.99;;;0.30;86.56
58967;BME280;44744;51.894;5.080;2024-01-16T15:48:16;100785.77;;;0.29;86.55
58967;BME280;44744;51.894;5.080;2024-01-16T15:53:16;100787.20;;;0.25;86.62
58967;BME280;44744;51.894;5.080;2024-01-16T15:58:16;100784.44;;;0.23;86.68
58967;BME280;44744;51.894;5.080;2024-01-16T16:03:17;100787.94;;;0.22;86.71
58967;BME280;44744;51.894;5.080;2024-01-16T16:08:18;100794.39;;;0.20;86.83
58967;BME280;44744;51.894;5.080;2024-01-16T16:13:19;100795.98;;;0.19;86.68
58967;BME280;44744;51.894;5.080;2024-01-16T16:18:20;100795.83;;;0.17;86.68
58967;BME280;44744;51.894;5.080;2024-01-16T16:23:20;100790.65;;;0.13;86.52
58967;BME280;44744;51.894;5.080;2024-01-16T16:28:21;100789.99;;;0.11;86.61
58967;BME280;44744;51.894;5.080;2024-01-16T16:33:21;100796.47;;;0.07;86.25
58967;BME280;44744;51.894;5.080;2024-01-16T16:38:22;100798.42;;;0.04;86.01
58967;BME280;44744;51.894;5.080;2024-01-16T16:43:22;100792.55;;;0.00;85.85
58967;BME280;44744;51.894;5.080;2024-01-16T16:48:22;100788.40;;;-0.01;85.92
58967;BME280;44744;51.894;5.080;2024-01-16T16:53:23;100783.36;;;-0.02;85.46
58967;BME280;44744;51.894;5.080;2024-01-16T16:58:23;100782.17;;;-0.04;85.42
58967;BME280;44744;51.894;5.080;2024-01-16T17:03:24;100780.81;;;-0.07;85.57
58967;BME280;44744;51.894;5.080;2024-01-16T17:08:25;100780.10;;;-0.05;85.91
58967;BME280;44744;51.894;5.080;2024-01-16T17:13:27;100777.48;;;-0.05;86.01
58967;BME280;44744;51.894;5.080;2024-01-16T17:18:31;100781.66;;;-0.06;86.13
58967;BME280;44744;51.894;5.080;2024-01-16T17:23:35;100780.09;;;-0.05;86.32
58967;BME280;44744;51.894;5.080;2024-01-16T17:28:36;100774.89;;;-0.06;86.24
58967;BME280;44744;51.894;5.080;2024-01-16T17:33:36;100771.25;;;-0.07;86.27
58967;BME280;44744;51.894;5.080;2024-01-16T17:38:37;100766.06;;;-0.09;86.25
58967;BME280;44744;51.894;5.080;2024-01-16T17:43:37;100755.64;;;-0.09;86.16
58967;BME280;44744;51.894;5.080;2024-01-16T17:48:39;100751.16;;;-0.13;85.91
58967;BME280;44744;51.894;5.080;2024-01-16T17:53:40;100745.63;;;-0.15;85.87
58967;BME280;44744;51.894;5.080;2024-01-16T17:58:43;100736.27;;;-0.17;85.76
58967;BME280;44744;51.894;5.080;2024-01-16T18:03:44;100731.41;;;-0.18;85.95
58967;BME280;44744;51.894;5.080;2024-01-16T18:08:46;100732.47;;;-0.20;85.76
58967;BME280;44744;51.894;5.080;2024-01-16T18:13:48;100730.41;;;-0.22;85.57
58967;BME280;44744;51.894;5.080;2024-01-16T18:18:49;100719.86;;;-0.26;85.40
58967;BME280;44744;51.894;5.080;2024-01-16T18:23:51;100709.81;;;-0.27;85.44
58967;BME280;44744;51.894;5.080;2024-01-16T18:28:52;100698.01;;;-0.29;85.32
58967;BME280;44744;51.894;5.080;2024-01-16T18:33:54;100692.48;;;-0.33;85.01
58967;BME280;44744;51.894;5.080;2024-01-16T18:38:54;100685.25;;;-0.38;85.15
58967;BME280;44744;51.894;5.080;2024-01-16T18:43:55;100684.77;;;-0.41;85.12
58967;BME280;44744;51.894;5.080;2024-01-16T18:48:55;100686.67;;;-0.41;85.32
58967;BME280;44744;51.894;5.080;2024-01-16T18:53:56;100679.23;;;-0.42;85.32
58967;BME280;44744;51.894;5.080;2024-01-16T18:58:56;100682.20;;;-0.44;85.26
58967;BME280;44744;51.894;5.080;2024-01-16T19:03:58;100674.27;;;-0.50;85.01
58967;BME280;44744;51.894;5.080;2024-01-16T19:08:59;100666.56;;;-0.59;84.90
58967;BME280;44744;51.894;5.080;2024-01-16T19:14:00;100672.92;;;-0.68;84.68
58967;BME280;44744;51.894;5.080;2024-01-16T19:19:00;100682.04;;;-0.75;84.59
58967;BME280;44744;51.894;5.080;2024-01-16T19:24:00;100676.37;;;-0.82;84.49
58967;BME280;44744;51.894;5.080;2024-01-16T19:29:01;100670.50;;;-0.85;84.75
58967;BME280;44744;51.894;5.080;2024-01-16T19:34:03;100669.11;;;-0.86;84.79
58967;BME280;44744;51.894;5.080;2024-01-16T19:39:04;100667.06;;;-0.89;84.64
58967;BME280;44744;51.894;5.080;2024-01-16T19:44:05;100666.06;;;-0.93;84.44
58967;BME280;44744;51.894;5.080;2024-01-16T19:49:05;100656.73;;;-0.98;83.90
58967;BME280;44744;51.894;5.080;2024-01-16T19:54:08;100645.48;;;-1.00;84.12
58967;BME280;44744;51.894;5.080;2024-01-16T19:59:09;100639.95;;;-1.02;84.04
58967;BME280;44744;51.894;5.080;2024-01-16T20:04:10;100632.54;;;-1.08;83.53
58967;BME280;44744;51.894;5.080;2024-01-16T20:09:10;100621.48;;;-1.14;83.15
58967;BME280;44744;51.894;5.080;2024-01-16T20:14:11;100620.27;;;-1.13;83.42
58967;BME280;44744;51.894;5.080;2024-01-16T20:19:12;100617.14;;;-1.12;83.63
58967;BME280;44744;51.894;5.080;2024-01-16T20:24:13;100609.67;;;-1.12;83.51
58967;BME280;44744;51.894;5.080;2024-01-16T20:29:14;100611.08;;;-1.14;83.53
58967;BME280;44744;51.894;5.080;2024-01-16T20:34:14;100614.93;;;-1.17;83.16
58967;BME280;44744;51.894;5.080;2024-01-16T20:39:15;100606.13;;;-1.21;83.27
58967;BME280;44744;51.894;5.080;2024-01-16T20:44:15;100597.98;;;-1.23;83.33
58967;BME280;44744;51.894;5.080;2024-01-16T20:49:22;100592.64;;;-1.27;83.25
58967;BME280;44744;51.894;5.080;2024-01-16T20:54:22;100593.30;;;-1.23;83.36
58967;BME280;44744;51.894;5.080;2024-01-16T20:59:23;100594.31;;;-1.20;83.64
58967;BME280;44744;51.894;5.080;2024-01-16T21:04:24;100576.56;;;-1.17;83.89
58967;BME280;44744;51.894;5.080;2024-01-16T21:09:25;100573.10;;;-1.17;83.69
58967;BME280;44744;51.894;5.080;2024-01-16T21:14:26;100571.77;;;-1.20;83.64
58967;BME280;44744;51.894;5.080;2024-01-16T21:19:26;100559.70;;;-1.28;83.25
58967;BME280;44744;51.894;5.080;2024-01-16T21:24:27;100549.70;;;-1.35;83.17
58967;BME280;44744;51.894;5.080;2024-01-16T21:29:28;100543.16;;;-1.41;83.30
58967;BME280;44744;51.894;5.080;2024-01-16T21:34:29;100536.29;;;-1.45;82.98
58967;BME280;44744;51.894;5.080;2024-01-16T21:39:29;100533.20;;;-1.49;83.24
58967;BME280;44744;51.894;5.080;2024-01-16T21:44:31;100528.14;;;-1.48;83.42
58967;BME280;44744;51.894;5.080;2024-01-16T21:49:32;100521.84;;;-1.43;83.68
58967;BME280;44744;51.894;5.080;2024-01-16T21:54:32;100512.27;;;-1.40;83.98
58967;BME280;44744;51.894;5.080;2024-01-16T21:59:33;100497.01;;;-1.39;83.83
58967;BME280;44744;51.894;5.080;2024-01-16T22:04:33;100488.73;;;-1.43;83.60
58967;BME280;44744;51.894;5.080;2024-01-16T22:09:34;100475.09;;;-1.49;83.45
58967;BME280;44744;51.894;5.080;2024-01-16T22:14:35;100458.67;;;-1.55;83.55
58967;BME280;44744;51.894;5.080;2024-01-16T22:19:37;100443.11;;;-1.59;83.67
58967;BME280;44744;51.894;5.080;2024-01-16T22:24:37;100435.69;;;-1.63;83.52
58967;BME280;44744;51.894;5.080;2024-01-16T22:29:38;100431.37;;;-1.63;83.72
58967;BME280;44744;51.894;5.080;2024-01-16T22:34:39;100428.76;;;-1.62;83.95
58967;BME280;44744;51.894;5.080;2024-01-16T22:39:42;100428.02;;;-1.59;84.04
58967;BME280;44744;51.894;5.080;2024-01-16T22:44:44;100414.66;;;-1.59;84.05
58967;BME280;44744;51.894;5.080;2024-01-16T22:49:44;100409.08;;;-1.56;84.29
58967;BME280;44744;51.894;5.080;2024-01-16T22:54:45;100397.14;;;-1.58;84.29
58967;BME280;44744;51.894;5.080;2024-01-16T22:59:45;100390.05;;;-1.60;84.10
58967;BME280;44744;51.894;5.080;2024-01-16T23:04:46;100383.00;;;-1.65;84.15
58967;BME280;44744;51.894;5.080;2024-01-16T23:09:46;100382.41;;;-1.74;83.84
58967;BME280;44744;51.894;5.080;2024-01-16T23:14:47;100377.14;;;-1.82;83.94
58967;BME280;44744;51.894;5.080;2024-01-16T23:19:50;100379.11;;;-1.88;83.92
58967;BME280;44744;51.894;5.080;2024-01-16T23:24:53;100370.30;;;-1.91;84.22
58967;BME280;44744;51.894;5.080;2024-01-16T23:29:53;100367.38;;;-1.93;84.33
58967;BME280;44744;51.894;5.080;2024-01-16T23:34:54;100362.67;;;-1.92;84.57
58967;BME280;44744;51.894;5.080;2024-01-16T23:39:54;100361.79;;;-1.89;84.95
58967;BME280;44744;51.894;5.080;2024-01-16T23:44:55;100351.59;;;-1.93;85.08
58967;BME280;44744;51.894;5.080;2024-01-16T23:49:57;100351.80;;;-1.95;85.06
58967;BME280;44744;51.894;5.080;2024-01-16T23:54:57;100339.20;;;-1.99;85.03
58967;BME280;44744;51.894;5.080;2024-01-16T23:59:58;100323.84;;;-2.06;84.86
